Time;durP1;ratioP1;P1;durP2;ratioP2;P2;SDS_P1;SDS_P2;PMS_P1;PMS_P2;Temp;Humidity;BMP_temperature;BMP_pressure;BME280_temperature;BME280_humidity;BME280_pressure;Samples;Min_cycle;Max_cycle;Signal;HPM_P1;HPM_P2
2023/04/08 00:00:20;;;;;;;17.17;7.10;;;;;;;2.78;100.00;95924.94;1041595;28;20017;-72
2023/04/08 00:00:50;;;;;;;12.23;7.00;;;;;;;2.77;100.00;95923.38;1041691;28;20032;-72
2023/04/08 00:01:21;;;;;;;13.20;6.93;;;;;;;2.77;100.00;95933.72;1042742;28;20036;-72
2023/04/08 00:01:51;;;;;;;13.68;7.57;;;;;;;2.74;100.00;95918.59;1030469;28;20862;-72
2023/04/08 00:02:22;;;;;;;13.73;7.32;;;;;;;2.79;100.00;95931.75;1030549;28;20022;-71
2023/04/08 00:02:52;;;;;;;10.68;7.00;;;;;;;2.76;100.00;95927.75;1022659;28;20015;-72
2023/04/08 00:03:23;;;;;;;10.48;6.40;;;;;;;2.76;100.00;95926.97;1022705;28;20019;-72
2023/04/08 00:03:53;;;;;;;10.30;6.93;;;;;;;2.75;100.00;95927.94;1034624;28;20022;-72
2023/04/08 00:04:24;;;;;;;10.02;6.32;;;;;;;2.77;100.00;95931.94;1033363;28;20602;-72
2023/04/08 00:04:54;;;;;;;14.00;7.20;;;;;;;2.77;100.00;95934.53;1030078;28;20041;-72
2023/04/08 00:05:25;;;;;;;9.82;6.75;;;;;;;2.69;100.00;95921.81;1033223;28;20480;-72
2023/04/08 00:05:55;;;;;;;14.10;7.30;;;;;;;2.73;100.00;95930.75;1026535;28;20023;-72
2023/04/08 00:06:26;;;;;;;11.18;7.20;;;;;;;2.72;100.00;95929.19;1034773;28;20098;-71
2023/04/08 00:06:56;;;;;;;11.68;6.93;;;;;;;2.67;100.00;95926.41;1035890;28;20037;-72
2023/04/08 00:07:27;;;;;;;11.73;6.97;;;;;;;2.65;100.00;95925.03;1038759;28;20074;-72
2023/04/08 00:07:57;;;;;;;12.68;6.75;;;;;;;2.72;100.00;95933.56;1038331;28;20013;-72
2023/04/08 00:08:28;;;;;;;13.00;7.47;;;;;;;2.64;100.00;95923.44;1034606;28;20033;-72
2023/04/08 00:08:58;;;;;;;11.93;6.90;;;;;;;2.69;100.00;95931.41;1034445;28;20021;-72
2023/04/08 00:09:29;;;;;;;10.95;6.72;;;;;;;2.68;100.00;95937.56;1030488;28;20076;-72
2023/04/08 00:09:59;;;;;;;11.88;6.82;;;;;;;2.69;100.00;95927.00;1034316;28;20033;-72
2023/04/08 00:10:30;;;;;;;12.60;6.95;;;;;;;2.71;100.00;95935.34;1037211;28;20454;-72
2023/04/08 00:11:00;;;;;;;10.32;6.15;;;;;;;2.70;100.00;95926.00;1034391;28;20014;-72
2023/04/08 00:11:31;;;;;;;12.52;6.40;;;;;;;2.69;100.00;95931.41;1038627;28;20018;-72
2023/04/08 00:12:01;;;;;;;13.95;7.30;;;;;;;2.62;100.00;95931.44;1034353;28;20097;-72
2023/04/08 00:12:32;;;;;;;11.57;6.55;;;;;;;2.63;100.00;95929.63;1030437;28;20018;-72
2023/04/08 00:13:02;;;;;;;13.68;6.65;;;;;;;2.68;100.00;95935.75;1030511;28;20018;-72
2023/04/08 00:13:33;;;;;;;10.48;7.40;;;;;;;2.68;100.00;95929.78;1026579;28;20022;-72
2023/04/08 00:14:03;;;;;;;10.52;6.47;;;;;;;2.65;100.00;95930.19;1026801;28;20027;-72
2023/04/08 00:14:34;;;;;;;10.98;6.20;;;;;;;2.67;100.00;95941.16;1033927;28;20736;-72
2023/04/08 00:15:05;;;;;;;14.10;7.40;;;;;;;2.65;100.00;95930.19;1030348;28;20109;-72
2023/04/08 00:15:35;;;;;;;15.90;7.10;;;;;;;2.67;100.00;95938.56;1038532;28;20025;-72
2023/04/08 00:16:06;;;;;;;12.43;7.30;;;;;;;2.68;100.00;95943.53;1038380;28;20754;-72
2023/04/08 00:16:37;;;;;;;11.20;7.47;;;;;;;2.67;100.00;95938.56;1042532;28;20028;-71
2023/04/08 00:17:07;;;;;;;15.07;6.88;;;;;;;2.67;100.00;95941.94;1032100;28;20253;-72
2023/04/08 00:17:38;;;;;;;13.82;7.43;;;;;;;2.67;100.00;95943.75;1038598;28;20032;-72
2023/04/08 00:18:08;;;;;;;12.45;7.47;;;;;;;2.68;100.00;95940.16;1034338;28;20488;-72
2023/04/08 00:18:40;;;;;;;11.18;7.10;;;;;;;2.63;100.00;95938.19;1030467;28;20027;-72
2023/04/08 00:19:11;;;;;;;12.15;7.47;;;;;;;2.71;100.00;95944.91;1042481;28;20360;-72
2023/04/08 00:19:41;;;;;;;12.70;7.32;;;;;;;2.68;100.00;95945.34;1042340;28;20351;-71
2023/04/08 00:20:12;;;;;;;16.55;7.50;;;;;;;2.67;100.00;95948.94;1038645;28;20260;-72
2023/04/08 00:20:42;;;;;;;11.30;6.85;;;;;;;2.67;100.00;95944.53;1037295;28;20022;-72
2023/04/08 00:21:15;;;;;;;11.30;7.00;;;;;;;2.69;100.00;95947.72;1034369;28;20022;-72
2023/04/08 00:21:46;;;;;;;14.45;7.68;;;;;;;2.71;100.00;95942.34;1038749;28;20518;-72
2023/04/08 00:22:17;;;;;;;14.52;7.70;;;;;;;2.69;100.00;95939.16;1038943;28;20307;-72
2023/04/08 00:22:47;;;;;;;17.70;8.05;;;;;;;2.65;100.00;95941.38;1043110;28;20264;-71
2023/04/08 00:23:20;;;;;;;10.77;7.15;;;;;;;2.63;100.00;95927.84;1030405;28;20026;-72
2023/04/08 00:23:50;;;;;;;14.18;7.55;;;;;;;2.68;100.00;95940.94;1030437;28;20077;-72
2023/04/08 00:24:21;;;;;;;12.20;6.72;;;;;;;2.69;100.00;95949.53;1022277;28;20938;-72
2023/04/08 00:24:51;;;;;;;11.25;7.53;;;;;;;2.68;100.00;95943.53;1030488;28;20045;-72
2023/04/08 00:25:22;;;;;;;12.13;7.20;;;;;;;2.62;100.00;95935.81;1038732;28;20388;-72
2023/04/08 00:25:52;;;;;;;15.07;7.90;;;;;;;2.66;100.00;95937.78;1034455;28;20018;-72
2023/04/08 00:26:23;;;;;;;12.52;7.32;;;;;;;2.62;100.00;95931.44;1038122;28;20021;-72
2023/04/08 00:26:53;;;;;;;12.30;7.15;;;;;;;2.67;100.00;95938.56;1030471;28;20480;-72
2023/04/08 00:27:26;;;;;;;9.85;6.78;;;;;;;2.67;100.00;95941.16;1034426;28;20033;-71
2023/04/08 00:27:57;;;;;;;12.68;7.63;;;;;;;2.68;100.00;95940.16;1032917;28;20014;-72
2023/04/08 00:28:27;;;;;;;12.82;8.20;;;;;;;2.63;100.00;95934.81;1034469;28;20766;-72
2023/04/08 00:28:58;;;;;;;14.60;7.53;;;;;;;2.68;100.00;95943.53;1042611;28;20028;-72
2023/04/08 00:29:28;;;;;;;12.55;8.13;;;;;;;2.65;100.00;95943.16;1042616;28;20013;-72
2023/04/08 00:29:59;;;;;;;14.13;7.80;;;;;;;2.66;100.00;95937.00;1038470;28;20449;-72
2023/04/08 00:30:29;;;;;;;10.85;7.40;;;;;;;2.63;100.00;95942.59;1037834;28;20052;-72
2023/04/08 00:30:59;;;;;;;11.20;7.97;;;;;;;2.64;100.00;95933.81;1038517;28;20034;-72
2023/04/08 00:31:30;;;;;;;16.17;7.68;;;;;;;2.62;100.00;95930.66;1038512;28;20025;-72
2023/04/08 00:32:01;;;;;;;12.13;7.55;;;;;;;2.52;100.00;95931.09;1042486;28;20102;-72
2023/04/08 00:32:32;;;;;;;11.75;8.40;;;;;;;2.56;100.00;95938.22;1034639;28;20508;-72
2023/04/08 00:33:03;;;;;;;13.90;8.65;;;;;;;2.58;100.00;95940.59;1034322;28;20257;-72
2023/04/08 00:33:33;;;;;;;15.43;8.43;;;;;;;2.55;100.00;95939.25;1034214;28;20095;-72
2023/04/08 00:34:04;;;;;;;15.70;8.32;;;;;;;2.56;100.00;95938.22;1030308;28;20273;-71
2023/04/08 00:34:36;;;;;;;11.95;7.82;;;;;;;2.57;100.00;95939.03;1026630;28;20033;-72
2023/04/08 00:35:07;;;;;;;14.05;8.10;;;;;;;2.56;100.00;95938.22;1034602;28;20022;-72
2023/04/08 00:35:37;;;;;;;15.75;8.27;;;;;;;2.53;100.00;95933.47;1038776;28;20264;-72
2023/04/08 00:36:08;;;;;;;14.25;7.60;;;;;;;2.52;100.00;95934.47;1034663;28;20324;-72
2023/04/08 00:36:39;;;;;;;12.30;8.40;;;;;;;2.55;100.00;95939.25;1029980;28;20014;-71
2023/04/08 00:37:09;;;;;;;13.80;8.75;;;;;;;2.46;100.00;95926.72;1026140;28;20710;-72
2023/04/08 00:37:40;;;;;;;12.85;7.68;;;;;;;2.50;100.00;95933.88;1026683;28;20031;-72
2023/04/08 00:38:11;;;;;;;14.38;8.20;;;;;;;2.49;100.00;95932.28;1038511;28;20025;-72
2023/04/08 00:38:41;;;;;;;11.60;7.78;;;;;;;2.50;100.00;95939.03;1036962;28;20076;-72
2023/04/08 00:39:12;;;;;;;15.65;9.05;;;;;;;2.52;100.00;95937.06;1030198;28;20467;-72
2023/04/08 00:39:43;;;;;;;14.18;7.47;;;;;;;2.50;100.00;95944.22;1030129;28;20046;-72
2023/04/08 00:40:13;;;;;;;14.25;8.45;;;;;;;2.49;100.00;95941.84;1029163;28;20261;-72
2023/04/08 00:40:44;;;;;;;17.52;8.80;;;;;;;2.45;100.00;95935.47;1034521;28;20018;-72
2023/04/08 00:41:14;;;;;;;15.32;8.43;;;;;;;2.49;100.00;95941.84;1030209;28;20018;-72
2023/04/08 00:41:45;;;;;;;19.63;8.10;;;;;;;2.48;100.00;95937.66;1034300;28;20786;-72
2023/04/08 00:42:16;;;;;;;15.10;8.30;;;;;;;2.42;100.00;95931.53;1030456;28;20022;-72
2023/04/08 00:42:46;;;;;;;14.85;8.68;;;;;;;2.44;100.00;95942.47;1034515;28;20050;-72
2023/04/08 00:43:19;;;;;;;15.60;8.27;;;;;;;2.43;100.00;95933.09;1036706;28;20026;-72
2023/04/08 00:43:51;;;;;;;13.15;8.65;;;;;;;2.44;100.00;95941.66;1037131;28;20045;-72
2023/04/08 00:44:21;;;;;;;13.57;7.88;;;;;;;2.43;100.00;95946.06;1041902;28;20317;-72
2023/04/08 00:44:52;;;;;;;14.27;8.23;;;;;;;2.43;100.00;95946.06;1033997;28;20327;-71
2023/04/08 00:45:22;;;;;;;14.65;8.73;;;;;;;2.40;100.00;95941.28;1042846;28;20033;-72
2023/04/08 00:45:53;;;;;;;16.85;7.75;;;;;;;2.41;100.00;95947.25;1042600;28;20021;-71
2023/04/08 00:46:23;;;;;;;16.65;8.10;;;;;;;2.39;100.00;95936.31;1042774;28;20029;-72
2023/04/08 00:46:54;;;;;;;13.85;8.90;;;;;;;2.35;100.00;95933.34;1046579;28;20032;-72
2023/04/08 00:47:24;;;;;;;13.00;8.60;;;;;;;2.43;100.00;95942.69;1034518;28;20022;-72
2023/04/08 00:47:55;;;;;;;12.73;7.90;;;;;;;2.42;100.00;95947.06;1034374;28;20030;-72
2023/04/08 00:48:25;;;;;;;14.18;9.20;;;;;;;2.42;100.00;95944.47;1031711;28;20014;-72
2023/04/08 00:48:56;;;;;;;14.77;8.65;;;;;;;2.37;100.00;95939.09;1033073;28;20029;-72
2023/04/08 00:49:26;;;;;;;15.20;9.40;;;;;;;2.34;100.00;95939.50;1030562;28;20018;-72
2023/04/08 00:49:57;;;;;;;15.23;9.05;;;;;;;2.39;100.00;95946.69;1034275;28;20025;-72
2023/04/08 00:50:27;;;;;;;15.90;9.25;;;;;;;2.40;100.00;95941.28;1040772;28;20067;-72
2023/04/08 00:50:58;;;;;;;16.40;7.70;;;;;;;2.40;100.00;95948.25;1042403;28;20063;-72
2023/04/08 00:51:30;;;;;;;16.63;9.02;;;;;;;2.31;100.00;95932.16;1035976;28;20088;-72
2023/04/08 00:52:00;;;;;;;13.96;8.78;;;;;;;2.39;100.00;95952.66;1034274;28;20040;-72
2023/04/08 00:52:31;;;;;;;14.57;8.90;;;;;;;2.30;100.00;95933.16;1031356;28;20030;-72
2023/04/08 00:53:01;;;;;;;15.98;9.40;;;;;;;2.37;100.00;95952.06;1030098;28;20076;-72
2023/04/08 00:53:31;;;;;;;14.63;8.73;;;;;;;2.39;100.00;95951.88;1030253;28;20526;-72
2023/04/08 00:54:06;;;;;;;12.32;8.10;;;;;;;2.37;100.00;95946.88;1030140;28;20077;-72
2023/04/08 00:54:36;;;;;;;13.23;8.48;;;;;;;2.32;100.00;95949.31;1030682;28;20023;-72
2023/04/08 00:55:07;;;;;;;16.00;8.45;;;;;;;2.32;100.00;95949.31;1030397;28;20352;-72
2023/04/08 00:55:37;;;;;;;15.77;9.68;;;;;;;2.30;100.00;95949.50;1030229;28;20025;-72
2023/04/08 00:56:08;;;;;;;17.17;8.60;;;;;;;2.24;100.00;95939.16;1030239;28;20511;-72
2023/04/08 00:56:38;;;;;;;15.90;8.45;;;;;;;2.28;100.00;95955.88;1034794;28;20033;-72
2023/04/08 00:57:09;;;;;;;14.05;8.20;;;;;;;2.24;100.00;95941.75;1042488;28;20009;-72
2023/04/08 00:57:39;;;;;;;12.90;8.23;;;;;;;2.26;100.00;95948.31;1038107;28;20025;-72
2023/04/08 00:58:10;;;;;;;18.02;8.30;;;;;;;2.25;100.00;95946.72;1030329;28;20026;-72
2023/04/08 00:58:40;;;;;;;13.45;7.97;;;;;;;2.23;100.00;95942.75;1030122;28;20026;-72
2023/04/08 00:59:11;;;;;;;15.35;8.70;;;;;;;2.20;100.00;95943.94;1028688;28;20022;-72
2023/04/08 00:59:41;;;;;;;16.85;8.85;;;;;;;2.19;100.00;95941.56;1034402;28;20010;-72
2023/04/08 01:00:13;;;;;;;12.88;7.97;;;;;;;2.18;100.00;95951.16;1034395;28;20021;-72
2023/04/08 01:00:51;;;;;;;14.50;8.50;;;;;;;2.20;100.00;95948.34;1033428;28;20418;-72
2023/04/08 01:01:27;;;;;;;14.76;7.56;;;;;;;2.12;100.00;95937.22;1041980;28;20827;-72
2023/04/08 01:02:23;;;;;;;19.62;8.20;;;;;;;2.19;100.00;95947.53;1037921;28;20056;-72
2023/04/08 01:03:12;;;;;;;13.80;8.36;;;;;;;2.18;100.00;95945.16;1038146;28;20136;-72
2023/04/08 01:03:57;;;;;;;17.44;9.28;;;;;;;2.16;100.00;95947.16;1032260;28;20037;-71
2023/04/08 01:04:45;;;;;;;13.98;8.18;;;;;;;2.15;100.00;95948.97;1034200;28;20025;-72
2023/04/08 01:05:38;;;;;;;17.10;8.02;;;;;;;2.09;100.00;95942.78;1036739;28;20041;-72
2023/04/08 01:06:28;;;;;;;14.86;7.82;;;;;;;2.09;100.00;95942.00;1034074;28;20045;-72
2023/04/08 01:07:21;;;;;;;17.15;8.65;;;;;;;2.09;100.00;95947.97;1027936;28;20030;-72
2023/04/08 01:07:51;;;;;;;17.54;8.34;;;;;;;2.03;100.00;95943.59;1031247;28;20022;-72
2023/04/08 01:08:22;;;;;;;13.45;8.15;;;;;;;1.93;100.00;95921.75;1026223;28;20034;-72
2023/04/08 01:08:52;;;;;;;18.48;8.68;;;;;;;2.07;100.00;95942.19;1026091;28;20022;-72
2023/04/08 01:09:25;;;;;;;15.52;9.48;;;;;;;2.02;100.00;95941.22;1025545;28;20719;-72
2023/04/08 01:10:05;;;;;;;12.58;8.06;;;;;;;2.05;100.00;95940.81;1030261;28;20057;-72
2023/04/08 01:10:37;;;;;;;17.42;8.63;;;;;;;2.06;100.00;95943.19;1026218;28;20575;-72
2023/04/08 01:11:09;;;;;;;16.08;9.06;;;;;;;2.02;100.00;95934.25;1025650;28;20030;-72
2023/04/08 01:11:42;;;;;;;13.48;8.32;;;;;;;2.06;100.00;95950.97;1019881;29;20632;-72
2023/04/08 01:12:17;;;;;;;19.56;8.16;;;;;;;2.04;100.00;95939.22;1029444;28;20026;-71
2023/04/08 01:12:57;;;;;;;14.38;9.30;;;;;;;2.07;100.00;95939.59;1029955;28;20101;-72
2023/04/08 01:13:30;;;;;;;14.88;8.88;;;;;;;2.05;100.00;95939.03;1026381;28;20126;-71
2023/04/08 01:14:01;;;;;;;14.92;8.60;;;;;;;2.01;100.00;95934.44;1030145;28;20040;-73
2023/04/08 01:14:34;;;;;;;16.36;9.34;;;;;;;2.05;100.00;95946.78;1033089;28;20789;-71
2023/04/08 01:15:06;;;;;;;14.20;8.94;;;;;;;1.96;100.00;95932.47;1034061;28;20475;-72
2023/04/08 01:15:38;;;;;;;15.40;8.50;;;;;;;2.04;100.00;95939.22;1034955;28;20102;-72
2023/04/08 01:16:09;;;;;;;14.72;9.26;;;;;;;2.08;100.00;95941.22;1030203;28;20168;-71
2023/04/08 01:16:39;;;;;;;14.68;8.50;;;;;;;2.11;100.00;95940.81;1025992;28;20444;-72
2023/04/08 01:17:10;;;;;;;13.68;8.27;;;;;;;2.10;100.00;95935.81;1031592;28;20308;-72
2023/04/08 01:17:40;;;;;;;16.55;9.85;;;;;;;2.11;100.00;95940.00;1028564;28;20030;-71
2023/04/08 01:18:12;;;;;;;17.75;9.27;;;;;;;2.08;100.00;95943.81;1030134;28;20062;-72
2023/04/08 01:18:43;;;;;;;15.78;9.08;;;;;;;2.07;100.00;95939.59;1034757;28;20022;-71
2023/04/08 01:19:26;;;;;;;17.60;9.20;;;;;;;2.06;100.00;95948.38;1034265;28;20394;-72
2023/04/08 01:19:58;;;;;;;14.34;9.08;;;;;;;2.06;100.00;95943.19;1022277;29;20890;-72
2023/04/08 01:20:29;;;;;;;14.20;8.86;;;;;;;2.04;100.00;95936.63;1026071;28;20022;-72
2023/04/08 01:20:59;;;;;;;16.00;8.35;;;;;;;2.05;100.00;95935.66;1025000;28;20125;-71
2023/04/08 01:21:30;;;;;;;16.90;9.45;;;;;;;2.08;100.00;95940.44;1026197;28;20571;-72
2023/04/08 01:22:22;;;;;;;18.42;8.93;;;;;;;2.09;100.00;95942.00;1030168;28;20030;-72
2023/04/08 01:23:17;;;;;;;17.66;8.84;;;;;;;2.10;100.00;95939.19;1035047;28;20068;-72
2023/04/08 01:24:05;;;;;;;15.96;9.30;;;;;;;2.09;100.00;95934.25;1035903;28;20119;-72
2023/04/08 01:24:39;;;;;;;18.64;9.10;;;;;;;2.12;100.00;95934.63;1032525;28;20017;-71
2023/04/08 01:25:17;;;;;;;16.30;9.15;;;;;;;2.15;100.00;95940.38;1033683;28;20395;-71
2023/04/08 01:25:52;;;;;;;16.02;9.32;;;;;;;2.12;100.00;95942.38;1034288;28;20780;-72
2023/04/08 01:26:24;;;;;;;19.80;10.46;;;;;;;2.08;100.00;95930.88;1029459;28;20023;-72
2023/04/08 01:26:56;;;;;;;16.50;8.34;;;;;;;2.15;100.00;95940.38;1030287;28;20030;-72
2023/04/08 01:27:27;;;;;;;14.04;9.08;;;;;;;2.16;100.00;95935.00;1030150;28;20747;-72
2023/04/08 01:28:11;;;;;;;20.36;9.78;;;;;;;2.18;100.00;95945.16;1036434;28;20013;-72
2023/04/08 01:28:42;;;;;;;15.38;9.05;;;;;;;2.12;100.00;95944.19;1040792;28;20125;-72
2023/04/08 01:29:13;;;;;;;16.72;10.18;;;;;;;2.10;100.00;95944.38;1030095;28;20878;-72
2023/04/08 01:29:43;;;;;;;21.02;9.07;;;;;;;2.14;100.00;95942.16;1038345;28;20021;-72
2023/04/08 01:30:16;;;;;;;17.90;9.10;;;;;;;2.10;100.00;95936.63;1034099;28;20815;-72
2023/04/08 01:30:46;;;;;;;15.92;9.70;;;;;;;2.09;100.00;95934.25;1034246;28;20044;-72
2023/04/08 01:31:17;;;;;;;16.70;8.95;;;;;;;2.10;100.00;95939.19;1029936;28;20858;-72
2023/04/08 01:31:47;;;;;;;15.88;9.52;;;;;;;2.12;100.00;95941.59;1030180;28;20443;-72
2023/04/08 01:32:18;;;;;;;14.75;8.48;;;;;;;2.04;100.00;95929.66;1029915;28;20731;-72
2023/04/08 01:32:48;;;;;;;15.23;9.20;;;;;;;2.10;100.00;95930.66;1030170;28;20049;-72
2023/04/08 01:33:19;;;;;;;14.07;8.60;;;;;;;2.03;100.00;95928.06;1030084;28;20013;-74
2023/04/08 01:33:50;;;;;;;14.52;8.75;;;;;;;2.06;100.00;95938.03;1034598;28;20422;-71
2023/04/08 01:34:20;;;;;;;16.33;9.50;;;;;;;2.06;100.00;95940.63;1029582;28;20768;-71
2023/04/08 01:34:51;;;;;;;13.80;8.85;;;;;;;2.07;100.00;95936.22;1021222;28;20443;-71
2023/04/08 01:35:21;;;;;;;17.90;9.38;;;;;;;2.04;100.00;95934.84;1040887;28;20013;-72
2023/04/08 01:35:52;;;;;;;15.55;9.43;;;;;;;2.08;100.00;95937.84;1025135;28;20211;-71
2023/04/08 01:36:23;;;;;;;19.06;9.84;;;;;;;2.00;100.00;95927.69;1033769;28;20075;-72
2023/04/08 01:36:53;;;;;;;15.05;9.15;;;;;;;2.03;100.00;95935.84;1033827;28;20075;-72
2023/04/08 01:37:24;;;;;;;20.33;9.30;;;;;;;2.02;100.00;95931.66;1030863;28;20798;-72
2023/04/08 01:37:55;;;;;;;16.98;9.32;;;;;;;2.03;100.00;95938.44;1030261;28;20014;-72
2023/04/08 01:38:25;;;;;;;16.77;8.98;;;;;;;2.01;100.00;95940.44;1032284;28;20023;-72
2023/04/08 01:38:56;;;;;;;16.70;9.57;;;;;;;1.98;100.00;95937.44;1034148;28;20071;-72
2023/04/08 01:39:26;;;;;;;18.05;9.60;;;;;;;1.93;100.00;95930.28;1019463;29;20016;-71
2023/04/08 01:39:57;;;;;;;14.35;8.63;;;;;;;2.01;100.00;95935.28;1028310;28;20038;-72
2023/04/08 01:40:27;;;;;;;16.73;9.02;;;;;;;2.00;100.00;95941.41;1036253;28;20430;-72
2023/04/08 01:40:57;;;;;;;16.15;9.57;;;;;;;2.01;100.00;95934.44;1034055;28;20051;-71
2023/04/08 01:41:28;;;;;;;21.98;9.75;;;;;;;1.99;100.00;95929.50;1032159;28;20018;-71
2023/04/08 01:41:58;;;;;;;17.67;10.35;;;;;;;2.02;100.00;95936.84;1030116;28;20018;-72
2023/04/08 01:42:29;;;;;;;16.85;9.55;;;;;;;2.01;100.00;95940.44;1028799;28;20173;-72
2023/04/08 01:42:59;;;;;;;19.80;10.60;;;;;;;2.01;100.00;95935.28;1021944;28;20019;-71
2023/04/08 01:43:31;;;;;;;15.98;8.80;;;;;;;2.02;100.00;95936.84;1026111;28;20027;-72
2023/04/08 01:44:02;;;;;;;17.42;9.40;;;;;;;2.00;100.00;95938.84;1027345;28;20038;-72
2023/04/08 01:44:32;;;;;;;16.40;9.84;;;;;;;2.03;100.00;95937.63;1033890;28;20022;-72
2023/04/08 01:45:03;;;;;;;17.92;9.70;;;;;;;2.04;100.00;95940.00;1025670;28;20022;-72
2023/04/08 01:45:33;;;;;;;19.20;10.20;;;;;;;2.05;100.00;95925.31;1033979;28;20021;-72
2023/04/08 01:46:04;;;;;;;17.85;9.93;;;;;;;2.08;100.00;95941.22;1038084;28;20029;-72
2023/04/08 01:46:34;;;;;;;17.33;10.13;;;;;;;2.03;100.00;95930.66;1036347;28;20075;-72
2023/04/08 01:47:05;;;;;;;19.67;9.63;;;;;;;2.06;100.00;95940.63;1033975;28;20129;-72
2023/04/08 01:47:36;;;;;;;16.77;9.88;;;;;;;2.05;100.00;95933.84;1033119;28;20014;-72
2023/04/08 01:48:06;;;;;;;22.83;10.48;;;;;;;2.01;100.00;95929.28;1033991;28;20026;-72
2023/04/08 01:48:37;;;;;;;24.10;11.52;;;;;;;2.05;100.00;95920.91;1026106;28;20023;-72
2023/04/08 01:49:07;;;;;;;18.50;10.50;;;;;;;2.08;100.00;95930.06;1029913;28;20113;-72
2023/04/08 01:49:38;;;;;;;19.15;9.77;;;;;;;2.03;100.00;95928.06;1030234;28;20511;-72
2023/04/08 01:50:09;;;;;;;18.20;9.98;;;;;;;2.02;100.00;95931.66;1038142;28;20017;-71
2023/04/08 01:50:42;;;;;;;16.45;10.00;;;;;;;2.06;100.00;95938.03;1034226;28;20021;-72
2023/04/08 01:51:13;;;;;;;18.52;9.95;;;;;;;2.05;100.00;95939.03;1026117;28;20031;-72
2023/04/08 01:51:43;;;;;;;20.77;10.75;;;;;;;2.07;100.00;95934.44;1025969;28;20289;-72
2023/04/08 01:52:14;;;;;;;20.20;10.10;;;;;;;2.03;100.00;95928.06;1030076;28;20096;-72
2023/04/08 01:52:45;;;;;;;17.33;9.85;;;;;;;2.05;100.00;95938.25;1035020;28;20029;-72
2023/04/08 01:53:15;;;;;;;14.74;9.60;;;;;;;2.00;100.00;95925.91;1034160;28;20943;-71
2023/04/08 01:53:46;;;;;;;19.10;9.57;;;;;;;2.05;100.00;95935.66;1022103;29;20019;-72
2023/04/08 01:54:16;;;;;;;17.52;10.23;;;;;;;2.03;100.00;95932.47;1023754;28;20528;-71
2023/04/08 01:54:47;;;;;;;19.05;10.65;;;;;;;2.04;100.00;95934.03;1025654;28;20106;-72
2023/04/08 01:55:17;;;;;;;20.05;10.50;;;;;;;2.03;100.00;95933.25;1033936;28;20025;-72
2023/04/08 01:55:50;;;;;;;15.77;9.77;;;;;;;2.00;100.00;95928.47;1034434;28;20018;-72
2023/04/08 01:56:21;;;;;;;19.64;9.86;;;;;;;2.07;100.00;95931.84;1029935;28;20918;-72
2023/04/08 01:56:51;;;;;;;20.45;10.30;;;;;;;2.06;100.00;95932.84;1032300;28;20591;-71
2023/04/08 01:57:23;;;;;;;17.50;10.73;;;;;;;2.08;100.00;95935.25;1026030;28;20290;-72
2023/04/08 01:57:54;;;;;;;19.90;9.98;;;;;;;2.10;100.00;95933.22;1034103;28;20049;-72
2023/04/08 01:58:25;;;;;;;20.15;10.57;;;;;;;2.08;100.00;95933.44;1038066;28;20017;-72
2023/04/08 01:58:55;;;;;;;16.23;10.07;;;;;;;2.05;100.00;95928.69;1038865;28;20252;-72
2023/04/08 01:59:28;;;;;;;20.55;10.77;;;;;;;2.08;100.00;95933.44;1029998;28;20022;-71
2023/04/08 02:00:01;;;;;;;20.16;12.14;;;;;;;2.08;100.00;95935.25;1026177;28;20015;-72
2023/04/08 02:00:31;;;;;;;18.84;10.42;;;;;;;2.10;100.00;95939.19;1029947;28;20042;-71
2023/04/08 02:01:02;;;;;;;17.08;10.38;;;;;;;2.10;100.00;95938.41;1033725;28;20132;-72
2023/04/08 02:01:33;;;;;;;21.25;10.10;;;;;;;2.08;100.00;95941.22;1034012;28;20140;-71
2023/04/08 02:02:04;;;;;;;19.05;10.57;;;;;;;2.11;100.00;95940.00;1028708;28;20047;-71
2023/04/08 02:02:35;;;;;;;21.82;11.12;;;;;;;2.04;100.00;95931.47;1034005;28;20018;-72
2023/04/08 02:03:06;;;;;;;19.00;10.60;;;;;;;2.10;100.00;95939.19;1029993;28;20734;-71
2023/04/08 02:03:37;;;;;;;21.00;10.27;;;;;;;2.06;100.00;95930.25;1033989;28;20029;-72
2023/04/08 02:04:07;;;;;;;21.38;10.77;;;;;;;2.11;100.00;95945.16;1030157;28;20261;-72
2023/04/08 02:04:38;;;;;;;19.13;10.85;;;;;;;2.15;100.00;95935.19;1036501;28;20040;-72
2023/04/08 02:05:08;;;;;;;22.35;10.15;;;;;;;2.11;100.00;95929.63;1038317;28;20511;-72
2023/04/08 02:05:39;;;;;;;20.08;10.07;;;;;;;2.16;100.00;95942.00;1034032;28;20128;-72
2023/04/08 02:06:09;;;;;;;23.45;10.73;;;;;;;2.07;100.00;95934.44;1027495;28;20022;-71
2023/04/08 02:06:40;;;;;;;20.13;10.30;;;;;;;2.12;100.00;95936.41;1025971;28;20057;-71
2023/04/08 02:07:11;;;;;;;16.25;10.50;;;;;;;2.12;100.00;95942.38;1025911;28;20019;-72
2023/04/08 02:07:41;;;;;;;17.30;10.60;;;;;;;2.10;100.00;95941.78;1026977;28;20516;-71
2023/04/08 02:08:12;;;;;;;17.42;10.50;;;;;;;2.12;100.00;95942.38;1030105;28;20554;-71
2023/04/08 02:08:42;;;;;;;18.67;10.35;;;;;;;2.15;100.00;95940.38;1033619;28;20026;-72
2023/04/08 02:09:13;;;;;;;19.95;10.93;;;;;;;2.15;100.00;95942.97;1033208;28;20084;-71
2023/04/08 02:09:43;;;;;;;21.00;10.82;;;;;;;2.14;100.00;95942.16;1038089;28;20022;-71
2023/04/08 02:10:14;;;;;;;23.23;10.45;;;;;;;2.12;100.00;95937.22;1033988;28;20714;-72
2023/04/08 02:10:45;;;;;;;20.25;10.82;;;;;;;2.15;100.00;95937.78;1034133;28;20025;-71
2023/04/08 02:11:15;;;;;;;19.05;10.95;;;;;;;2.17;100.00;95943.56;1030032;28;20034;-72
2023/04/08 02:11:46;;;;;;;24.75;11.00;;;;;;;2.16;100.00;95942.00;1038160;28;20045;-71
2023/04/08 02:12:16;;;;;;;22.10;11.55;;;;;;;2.10;100.00;95934.03;1037227;28;20029;-72
2023/04/08 02:12:47;;;;;;;23.27;11.10;;;;;;;2.16;100.00;95935.00;1034035;28;20939;-72
2023/04/08 02:13:17;;;;;;;17.92;10.65;;;;;;;2.11;100.00;95930.47;1021914;28;20438;-72
2023/04/08 02:13:48;;;;;;;17.67;10.57;;;;;;;2.16;100.00;95942.78;1026086;28;20015;-71
2023/04/08 02:14:18;;;;;;;17.15;9.52;;;;;;;2.16;100.00;95936.81;1034206;28;20014;-72
2023/04/08 02:14:49;;;;;;;17.58;10.75;;;;;;;2.18;100.00;95945.97;1029293;28;20018;-71
2023/04/08 02:15:19;;;;;;;21.70;10.77;;;;;;;2.20;100.00;95943.94;1030136;28;20023;-72
2023/04/08 02:16:00;;;;;;;20.77;11.40;;;;;;;2.19;100.00;95946.75;1022144;28;20043;-72
2023/04/08 02:16:43;;;;;;;20.52;11.27;;;;;;;2.23;100.00;95947.94;1030085;28;20518;-71
2023/04/08 02:17:20;;;;;;;19.36;11.58;;;;;;;2.22;100.00;95946.34;1039976;28;20307;-72
2023/04/08 02:17:59;;;;;;;18.42;11.08;;;;;;;2.20;100.00;95946.53;1032418;28;20026;-72
2023/04/08 02:18:30;;;;;;;25.95;10.45;;;;;;;2.16;100.00;95942.00;1029909;28;20061;-72
2023/04/08 02:19:51;;;;;;;19.20;10.96;;;;;;;2.17;100.00;95948.75;1028604;28;20265;-72
2023/04/08 02:20:27;;;;;;;20.04;10.48;;;;;;;2.19;100.00;95950.13;1030791;28;20022;-72
2023/04/08 02:21:07;;;;;;;20.42;11.08;;;;;;;2.22;100.00;95948.94;1033149;28;20030;-71
2023/04/08 02:21:43;;;;;;;22.23;10.20;;;;;;;2.26;100.00;95947.53;1038604;28;20017;-71
2023/04/08 02:22:18;;;;;;;19.25;10.95;;;;;;;2.19;100.00;95942.38;1040855;28;20527;-71
2023/04/08 02:22:58;;;;;;;19.38;10.70;;;;;;;2.20;100.00;95943.94;1032525;28;20253;-72
2023/04/08 02:23:28;;;;;;;20.96;11.24;;;;;;;2.15;100.00;95937.78;1034195;28;20499;-71
2023/04/08 02:23:58;;;;;;;21.92;11.25;;;;;;;2.21;100.00;95940.34;1034864;28;20026;-72
2023/04/08 02:24:29;;;;;;;20.63;11.10;;;;;;;2.15;100.00;95930.03;1039459;28;20695;-72
2023/04/08 02:25:00;;;;;;;18.33;11.23;;;;;;;2.20;100.00;95946.53;1021465;28;20031;-71
2023/04/08 02:25:30;;;;;;;20.38;11.48;;;;;;;2.19;100.00;95941.56;1030084;28;20026;-72
2023/04/08 02:26:01;;;;;;;22.20;11.20;;;;;;;2.19;100.00;95946.75;1027324;28;20023;-72
2023/04/08 02:26:33;;;;;;;17.23;10.90;;;;;;;2.17;100.00;95943.56;1026742;28;20019;-72
2023/04/08 02:27:03;;;;;;;20.80;11.18;;;;;;;2.20;100.00;95943.16;1026838;28;20134;-72
2023/04/08 02:27:34;;;;;;;23.27;11.63;;;;;;;2.16;100.00;95936.81;1030722;28;20269;-71
2023/04/08 02:28:05;;;;;;;20.42;11.60;;;;;;;2.16;100.00;95944.56;1038169;28;20029;-72
2023/04/08 02:28:35;;;;;;;21.70;11.88;;;;;;;2.22;100.00;95954.13;1030848;28;20014;-72
2023/04/08 02:29:06;;;;;;;22.30;12.38;;;;;;;2.24;100.00;95949.50;1034953;28;20829;-72
2023/04/08 02:29:36;;;;;;;23.02;11.27;;;;;;;2.21;100.00;95945.53;1026634;28;20030;-71